Time;durP1;ratioP1;P1;durP2;ratioP2;P2;SDS_P1;SDS_P2;PMS_P1;PMS_P2;Temp;Humidity;BMP_temperature;BMP_pressure;BME280_temperature;BME280_humidity;BME280_pressure;Samples;Min_cycle;Max_cycle;Signal;HPM_P1;HPM_P2
2022/05/23 00:00:15;;;;;;;4.30;2.53;;;14.70;73.00;;;;;;5051616;28;20116;-80
2022/05/23 00:02:40;;;;;;;5.43;2.50;;;14.70;73.00;;;;;;5034969;28;20118;-77
2022/05/23 00:05:06;;;;;;;9.65;2.83;;;14.70;72.80;;;;;;5037133;28;20037;-79
2022/05/23 00:07:38;;;;;;;5.80;2.42;;;14.70;73.10;;;;;;5072023;28;20037;-81
2022/05/23 00:10:06;;;;;;;3.75;2.17;;;14.70;73.00;;;;;;5071972;28;20033;-77
2022/05/23 00:12:32;;;;;;;8.25;2.80;;;14.60;73.20;;;;;;5072127;28;20047;-78
2022/05/23 00:14:58;;;;;;;4.90;2.55;;;14.60;73.30;;;;;;5022374;28;20128;-80
2022/05/23 00:17:24;;;;;;;4.53;2.47;;;14.60;73.30;;;;;;5021957;28;20401;-76
2022/05/23 00:19:50;;;;;;;5.50;3.08;;;14.60;73.20;;;;;;5071972;28;20052;-76
2022/05/23 00:22:16;;;;;;;7.85;2.92;;;14.60;73.20;;;;;;5071826;28;20404;-76
2022/05/23 00:24:44;;;;;;;4.18;2.30;;;14.60;73.10;;;;;;5071562;28;20520;-79
2022/05/23 00:27:13;;;;;;;7.55;2.92;;;14.60;73.30;;;;;;5071817;28;20043;-76
2022/05/23 00:29:38;;;;;;;6.38;2.58;;;14.50;73.10;;;;;;5071536;28;20071;-79
2022/05/23 00:37:33;;;;;;;6.17;2.57;;;14.50;73.70;;;;;;5071495;28;19970;-75
2022/05/23 00:39:59;;;;;;;3.60;2.40;;;14.50;73.00;;;;;;5038051;28;20072;-78
2022/05/23 00:45:15;;;;;;;5.97;2.50;;;14.50;73.50;;;;;;5071544;28;20068;-76
2022/05/23 00:47:42;;;;;;;5.82;2.47;;;14.50;73.40;;;;;;5071200;28;20041;-77
2022/05/23 00:50:09;;;;;;;4.95;2.50;;;14.50;73.60;;;;;;5071071;28;20094;-76
2022/05/23 00:52:46;;;;;;;5.55;2.80;;;14.50;73.70;;;;;;5071070;28;20052;-75
2022/05/23 00:55:28;;;;;;;4.80;2.60;;;14.40;73.60;;;;;;5071068;28;20521;-75
2022/05/23 00:58:01;;;;;;;3.70;2.38;;;14.40;73.80;;;;;;5071047;28;20076;-77
2022/05/23 01:00:28;;;;;;;3.72;1.98;;;14.40;73.70;;;;;;5070921;28;20124;-78
2022/05/23 01:03:01;;;;;;;6.13;2.35;;;14.40;73.70;;;;;;5071236;28;20163;-78
2022/05/23 01:05:27;;;;;;;7.10;2.25;;;14.50;73.80;;;;;;5021579;28;20116;-77
2022/05/23 01:07:53;;;;;;;3.47;2.40;;;14.40;73.80;;;;;;5021024;28;20111;-77
2022/05/23 01:10:19;;;;;;;3.50;2.60;;;14.50;73.80;;;;;;5020945;28;20121;-76
2022/05/23 01:12:45;;;;;;;5.80;2.40;;;14.50;73.50;;;;;;5054215;28;20073;-78
2022/05/23 01:15:20;;;;;;;2.65;2.10;;;14.50;73.50;;;;;;5037057;28;20073;-80
2022/05/23 01:17:46;;;;;;;3.67;2.10;;;14.50;73.70;;;;;;5070208;28;20082;-81
2022/05/23 01:20:12;;;;;;;6.05;2.53;;;14.50;73.50;;;;;;5037444;28;20045;-77
2022/05/23 01:22:51;;;;;;;4.57;2.10;;;14.50;73.40;;;;;;5037287;28;20048;-78
2022/05/23 01:25:35;;;;;;;4.68;2.28;;;14.60;73.30;;;;;;5070852;28;20389;-77
2022/05/23 01:28:02;;;;;;;4.28;2.47;;;14.60;73.20;;;;;;5070468;28;20041;-76
2022/05/23 01:30:29;;;;;;;5.45;2.10;;;14.60;73.10;;;;;;5020603;28;20051;-77
2022/05/23 01:32:55;;;;;;;3.25;1.98;;;14.60;73.00;;;;;;5020831;28;20082;-76
2022/05/23 01:35:21;;;;;;;5.13;2.28;;;14.60;72.80;;;;;;5070369;28;20485;-77
2022/05/23 01:37:47;;;;;;;8.50;3.38;;;14.60;72.80;;;;;;5020620;28;20032;-80
2022/05/23 01:40:16;;;;;;;4.03;2.08;;;14.60;72.80;;;;;;5036792;28;20397;-77
2022/05/23 01:42:42;;;;;;;2.97;1.90;;;14.70;72.70;;;;;;5070146;28;20464;-80
2022/05/23 01:45:09;;;;;;;3.47;2.22;;;14.60;72.60;;;;;;5070136;28;20499;-75
2022/05/23 01:47:35;;;;;;;4.38;2.10;;;14.70;72.50;;;;;;5070076;28;20044;-78
2022/05/23 01:50:01;;;;;;;4.47;2.28;;;14.70;72.30;;;;;;5070324;28;20035;-77
2022/05/23 01:52:27;;;;;;;4.78;1.92;;;14.70;72.30;;;;;;5069859;28;20552;-77
2022/05/23 01:54:52;;;;;;;5.95;2.40;;;14.70;72.30;;;;;;4998300;28;20053;-76
2022/05/23 01:57:18;;;;;;;4.15;1.65;;;14.70;72.20;;;;;;5033265;28;20111;-78
2022/05/23 02:02:28;;;;;;;;;;;14.70;72.20;;;;;;5019617;28;20049;-78
2022/05/23 02:04:54;;;;;;;4.68;1.95;;;14.70;72.00;;;;;;5049717;28;19921;-77
2022/05/23 02:07:20;;;;;;;4.95;2.25;;;14.70;72.00;;;;;;5016743;28;20539;-80
2022/05/23 02:09:46;;;;;;;5.80;2.20;;;14.70;71.90;;;;;;5049552;28;20082;-75
2022/05/23 02:12:17;;;;;;;6.57;1.92;;;14.70;71.80;;;;;;5032943;28;20033;-78
2022/05/23 02:14:44;;;;;;;4.90;2.20;;;14.70;71.80;;;;;;5016563;28;20048;-80
2022/05/23 02:17:11;;;;;;;3.92;1.85;;;14.60;71.70;;;;;;5033189;28;20048;-74
2022/05/23 02:19:36;;;;;;;4.00;2.00;;;14.60;71.80;;;;;;5066462;28;20045;-74
2022/05/23 02:22:03;;;;;;;5.85;2.22;;;14.60;71.80;;;;;;5032714;28;20457;-75
2022/05/23 02:24:29;;;;;;;4.97;1.95;;;14.50;71.90;;;;;;5066071;28;20045;-77
2022/05/23 02:26:54;;;;;;;4.95;2.38;;;14.50;72.00;;;;;;5016170;28;20397;-75
2022/05/23 02:29:20;;;;;;;3.03;1.88;;;14.50;72.00;;;;;;5032709;28;20103;-74
2022/05/23 02:31:49;;;;;;;4.90;2.10;;;14.50;72.00;;;;;;5032812;28;20044;-78
2022/05/23 02:34:16;;;;;;;5.45;2.92;;;14.50;72.10;;;;;;5032573;28;20041;-75
2022/05/23 02:36:42;;;;;;;3.22;2.25;;;14.40;72.30;;;;;;5032587;28;20088;-75
2022/05/23 02:39:08;;;;;;;4.43;2.00;;;14.40;72.30;;;;;;5032475;28;20050;-76
2022/05/23 02:41:34;;;;;;;4.32;2.30;;;14.30;72.40;;;;;;5032405;28;20133;-78
2022/05/23 02:44:00;;;;;;;7.03;2.40;;;14.30;72.50;;;;;;5015863;28;20132;-80
2022/05/23 02:46:26;;;;;;;5.10;2.10;;;14.30;72.50;;;;;;5032433;28;20124;-76
2022/05/23 02:48:52;;;;;;;4.60;1.88;;;14.20;72.60;;;;;;5032636;28;20076;-73
2022/05/23 02:51:17;;;;;;;5.93;2.40;;;14.10;72.70;;;;;;5032235;28;20465;-75
2022/05/23 02:53:43;;;;;;;4.07;2.35;;;14.10;72.80;;;;;;5032045;28;20065;-76
2022/05/23 02:56:11;;;;;;;6.93;2.20;;;14.10;72.90;;;;;;5015894;28;20124;-79
2022/05/23 02:58:36;;;;;;;5.10;2.45;;;14.00;73.00;;;;;;5049093;28;20564;-76
2022/05/23 03:01:02;;;;;;;3.80;2.13;;;14.00;73.10;;;;;;5032060;28;20133;-75
2022/05/23 03:03:28;;;;;;;4.18;2.17;;;14.00;73.50;;;;;;5032007;28;20045;-75
2022/05/23 03:05:54;;;;;;;4.93;2.53;;;13.90;73.40;;;;;;5032291;28;20099;-76
2022/05/23 03:08:26;;;;;;;5.95;2.10;;;13.90;73.40;;;;;;5015619;28;20500;-76
2022/05/23 03:10:55;;;;;;;5.93;2.50;;;13.90;73.60;;;;;;5032130;28;20044;-75
2022/05/23 03:13:20;;;;;;;4.47;2.50;;;13.80;73.70;;;;;;5032217;28;20038;-77
2022/05/23 03:15:46;;;;;;;3.72;1.95;;;13.80;73.70;;;;;;5015512;28;20466;-78
2022/05/23 03:18:12;;;;;;;4.07;2.17;;;13.80;73.70;;;;;;5031777;28;20041;-75
2022/05/23 03:20:38;;;;;;;5.40;2.53;;;13.80;73.70;;;;;;5031517;28;20041;-76
2022/05/23 03:28:34;;;;;;;6.13;2.42;;;13.70;74.30;;;;;;5031794;28;20041;-78
2022/05/23 03:31:00;;;;;;;4.07;2.40;;;13.60;74.60;;;;;;5048240;28;20136;-77
2022/05/23 03:33:27;;;;;;;4.22;2.28;;;13.60;74.70;;;;;;5031691;28;20131;-77
2022/05/23 03:35:53;;;;;;;4.45;3.10;;;13.60;74.90;;;;;;5031714;28;20049;-77
2022/05/23 03:38:18;;;;;;;5.85;3.22;;;13.50;75.00;;;;;;5015182;28;20047;-75
2022/05/23 03:40:45;;;;;;;6.35;3.05;;;13.50;75.00;;;;;;4998593;28;20128;-75
2022/05/23 03:43:11;;;;;;;3.88;2.58;;;13.50;75.10;;;;;;5015117;28;20041;-79
2022/05/23 03:45:37;;;;;;;5.80;2.00;;;13.50;75.20;;;;;;5015195;28;20037;-78
2022/05/23 03:48:04;;;;;;;6.32;2.97;;;13.50;75.20;;;;;;5031566;28;20048;-75
2022/05/23 03:50:31;;;;;;;4.57;2.40;;;13.50;75.40;;;;;;5031441;28;20045;-77
2022/05/23 03:52:57;;;;;;;4.55;2.78;;;13.40;75.60;;;;;;5031583;28;20033;-75
2022/05/23 03:55:23;;;;;;;5.18;2.58;;;13.40;75.70;;;;;;5034787;28;20037;-76
2022/05/23 03:57:49;;;;;;;3.60;2.70;;;13.40;75.80;;;;;;5068036;28;20044;-76
2022/05/23 04:00:16;;;;;;;3.47;2.28;;;13.40;75.80;;;;;;5051240;28;20033;-74
2022/05/23 04:02:42;;;;;;;5.32;2.40;;;13.40;76.00;;;;;;5018507;28;20040;-77
2022/05/23 04:05:10;;;;;;;7.03;2.88;;;13.40;76.20;;;;;;5067990;28;20041;-76
2022/05/23 04:07:38;;;;;;;3.55;2.65;;;13.40;76.40;;;;;;5068249;28;20033;-76
2022/05/23 04:10:09;;;;;;;3.80;1.83;;;13.40;76.20;;;;;;5068162;28;20040;-76
2022/05/23 04:12:36;;;;;;;3.95;2.72;;;13.40;76.40;;;;;;5035052;28;20078;-76
2022/05/23 04:15:03;;;;;;;4.18;2.38;;;13.40;76.40;;;;;;5051423;28;20093;-76
2022/05/23 04:17:29;;;;;;;3.90;2.53;;;13.40;76.50;;;;;;5067968;28;20163;-76
2022/05/23 04:19:55;;;;;;;4.03;3.03;;;13.40;76.40;;;;;;5051692;28;20037;-77
2022/05/23 04:22:20;;;;;;;6.63;2.67;;;13.40;76.40;;;;;;5068127;28;20045;-79
2022/05/23 04:24:46;;;;;;;9.50;3.28;;;13.30;76.50;;;;;;5034736;28;20461;-77
2022/05/23 04:27:12;;;;;;;5.80;3.28;;;13.30;76.50;;;;;;5067977;28;20040;-76
2022/05/23 04:29:37;;;;;;;6.47;3.05;;;13.20;76.80;;;;;;5034812;28;20073;-76
2022/05/23 04:35:12;;;;;;;5.88;3.38;;;13.30;77.00;;;;;;5068192;28;20045;-78
2022/05/23 04:37:33;;;;;;;5.57;3.00;;;13.30;77.30;;;;;;5053629;28;20052;-76
2022/05/23 04:39:59;;;;;;;4.55;2.60;;;13.30;77.20;;;;;;5034357;28;20049;-79
2022/05/23 04:42:25;;;;;;;11.38;3.33;;;13.30;77.10;;;;;;5034272;28;20037;-78
2022/05/23 04:44:51;;;;;;;3.78;2.65;;;13.40;76.80;;;;;;5034245;28;20091;-77
2022/05/23 04:50:03;;;;;;;;;;;13.50;76.70;;;;;;5068055;28;20048;-74
2022/05/23 04:52:29;;;;;;;4.88;2.72;;;13.50;76.80;;;;;;5036919;28;19916;-76
2022/05/23 04:54:55;;;;;;;6.30;3.10;;;13.50;76.60;;;;;;5037732;28;20059;-76
2022/05/23 04:57:21;;;;;;;5.90;2.53;;;13.50;76.30;;;;;;5071044;28;20045;-77
2022/05/23 04:59:47;;;;;;;5.45;2.95;;;13.60;76.50;;;;;;5071001;28;20480;-77
2022/05/23 05:02:13;;;;;;;5.55;2.88;;;13.60;76.40;;;;;;5070881;28;20041;-77
2022/05/23 05:04:39;;;;;;;6.28;2.95;;;13.60;76.40;;;;;;5070825;28;20067;-75
2022/05/23 05:07:05;;;;;;;4.43;2.83;;;13.70;76.20;;;;;;5071048;28;20033;-77
2022/05/23 05:09:31;;;;;;;5.68;3.00;;;13.70;76.30;;;;;;5070720;28;20496;-78
2022/05/23 05:11:57;;;;;;;5.60;3.40;;;13.80;76.40;;;;;;5021037;28;20060;-74
2022/05/23 05:14:23;;;;;;;5.43;3.40;;;13.80;76.40;;;;;;5054056;28;20041;-75
2022/05/23 05:16:49;;;;;;;6.05;3.33;;;13.80;76.40;;;;;;5021176;28;20076;-75
2022/05/23 05:19:15;;;;;;;5.65;3.70;;;13.90;76.40;;;;;;5070671;28;20119;-76
2022/05/23 05:21:41;;;;;;;6.45;2.60;;;13.90;76.20;;;;;;5070508;28;20044;-78
2022/05/23 05:24:07;;;;;;;5.43;3.08;;;14.00;76.10;;;;;;5004519;28;20143;-75
2022/05/23 05:26:32;;;;;;;5.68;3.63;;;14.00;76.10;;;;;;5020973;28;20125;-75
2022/05/23 05:28:58;;;;;;;6.00;3.33;;;14.00;76.10;;;;;;5070451;28;20041;-77
2022/05/23 05:31:26;;;;;;;7.40;3.53;;;14.00;76.30;;;;;;5037373;28;20131;-77
2022/05/23 05:34:07;;;;;;;5.60;3.03;;;14.00;76.10;;;;;;5070459;28;20089;-77
2022/05/23 05:36:38;;;;;;;7.13;3.00;;;14.10;76.30;;;;;;5037356;28;20048;-76
2022/05/23 05:39:05;;;;;;;6.50;3.25;;;14.20;76.30;;;;;;5020715;28;20036;-74
2022/05/23 05:41:56;;;;;;;6.55;3.10;;;14.20;76.00;;;;;;5020692;28;20452;-75
2022/05/23 05:44:27;;;;;;;7.63;3.85;;;14.30;76.00;;;;;;5036885;28;20507;-76
2022/05/23 05:46:57;;;;;;;4.57;3.03;;;14.40;75.80;;;;;;5070110;28;20127;-76
2022/05/23 05:49:26;;;;;;;6.07;3.55;;;14.40;75.80;;;;;;5036848;28;20520;-75
2022/05/23 05:52:00;;;;;;;5.90;3.67;;;14.50;75.60;;;;;;5020447;28;20094;-75
2022/05/23 05:54:28;;;;;;;9.17;3.70;;;14.60;75.50;;;;;;5036331;28;20064;-75
2022/05/23 05:56:55;;;;;;;6.40;3.13;;;14.60;75.60;;;;;;5036595;28;20168;-74
2022/05/23 05:59:21;;;;;;;4.60;3.33;;;14.70;75.20;;;;;;5070313;28;20202;-75
2022/05/23 06:01:46;;;;;;;8.50;3.75;;;14.80;75.10;;;;;;5052956;28;20076;-74
2022/05/23 06:04:12;;;;;;;9.30;4.05;;;14.80;74.70;;;;;;5003652;28;20037;-75
2022/05/23 06:12:06;;;;;;;5.45;3.92;;;15.00;74.30;;;;;;5069597;28;20052;-76
2022/05/23 06:14:32;;;;;;;6.20;3.83;;;15.00;74.20;;;;;;5069831;28;20412;-76
2022/05/23 06:16:57;;;;;;;4.95;3.40;;;15.10;74.20;;;;;;5019793;28;20053;-77
2022/05/23 06:19:23;;;;;;;5.60;3.63;;;15.20;74.30;;;;;;5069717;28;20040;-76
2022/05/23 06:21:49;;;;;;;6.05;4.30;;;15.30;74.20;;;;;;5069136;28;20047;-76
2022/05/23 06:24:15;;;;;;;7.10;3.67;;;15.40;74.20;;;;;;5034642;28;20044;-79
2022/05/23 06:26:40;;;;;;;10.50;4.68;;;15.50;74.10;;;;;;5069295;28;20037;-75
2022/05/23 06:29:06;;;;;;;6.80;3.80;;;15.60;74.20;;;;;;5019611;28;20049;-75
2022/05/23 06:31:32;;;;;;;5.78;4.05;;;15.70;74.00;;;;;;5019451;28;20047;-79
2022/05/23 06:33:58;;;;;;;7.47;4.03;;;15.80;73.80;;;;;;5069280;28;20103;-74
2022/05/23 06:36:23;;;;;;;4.43;3.10;;;15.90;74.00;;;;;;5069248;28;20072;-77
2022/05/23 06:38:49;;;;;;;8.15;4.35;;;16.00;73.80;;;;;;5069077;28;20127;-75
2022/05/23 06:41:15;;;;;;;4.10;3.47;;;16.10;73.50;;;;;;5035665;28;20123;-74
2022/05/23 06:43:42;;;;;;;8.13;4.07;;;16.10;72.90;;;;;;5068927;28;20048;-75
2022/05/23 06:46:10;;;;;;;5.13;4.03;;;16.20;73.40;;;;;;5069183;28;20041;-76
2022/05/23 06:48:36;;;;;;;8.07;4.32;;;16.20;73.40;;;;;;5068941;28;20037;-76
2022/05/23 06:51:02;;;;;;;7.35;4.00;;;16.30;73.00;;;;;;5068781;28;20048;-77
2022/05/23 06:53:29;;;;;;;5.32;3.75;;;16.40;72.90;;;;;;5068629;28;20097;-79
2022/05/23 06:55:55;;;;;;;7.30;3.97;;;16.50;72.90;;;;;;5068858;28;20049;-76
2022/05/23 06:58:22;;;;;;;6.57;4.25;;;16.60;72.80;;;;;;5068803;28;20049;-79
2022/05/23 07:00:48;;;;;;;7.30;3.72;;;16.60;72.30;;;;;;5035416;28;20052;-79
2022/05/23 07:03:14;;;;;;;5.22;3.75;;;16.70;72.40;;;;;;5069065;28;20422;-76
2022/05/23 07:13:55;;;;;;;;;;;17.20;72.40;;;;;;5068242;28;20102;-76
2022/05/23 07:16:21;;;;;;;7.72;4.03;;;17.30;71.10;;;;;;5068531;28;19965;-78
2022/05/23 07:18:47;;;;;;;11.27;4.78;;;17.50;71.70;;;;;;5018810;28;20480;-79
2022/05/23 07:21:13;;;;;;;6.70;3.67;;;17.50;71.20;;;;;;5068605;28;20074;-77
2022/05/23 07:23:39;;;;;;;7.20;4.65;;;17.70;71.10;;;;;;5068651;28;20378;-81
2022/05/23 07:26:12;;;;;;;7.57;4.45;;;17.80;70.80;;;;;;5068575;28;20074;-79
2022/05/23 07:28:38;;;;;;;7.80;3.67;;;17.90;70.80;;;;;;5018922;28;20033;-77
2022/05/23 07:31:04;;;;;;;6.72;4.32;;;18.00;70.50;;;;;;5018549;28;20788;-74
2022/05/23 07:33:30;;;;;;;5.55;3.85;;;18.20;70.50;;;;;;5002528;28;20049;-79
2022/05/23 07:35:57;;;;;;;6.85;4.50;;;18.30;70.20;;;;;;5068643;28;20394;-77
2022/05/23 07:38:23;;;;;;;7.57;4.30;;;18.30;69.70;;;;;;5018799;28;20464;-79
2022/05/23 07:40:53;;;;;;;8.80;4.47;;;18.30;69.50;;;;;;5034791;28;20555;-77
2022/05/23 07:43:20;;;;;;;7.13;4.03;;;18.40;69.10;;;;;;5018734;28;20041;-80
2022/05/23 07:45:48;;;;;;;6.93;4.65;;;18.30;68.80;;;;;;5018404;28;20033;-75
2022/05/23 07:48:14;;;;;;;7.45;4.70;;;18.40;69.20;;;;;;5018740;28;20419;-75
2022/05/23 07:50:43;;;;;;;7.20;4.55;;;18.30;67.80;;;;;;5068083;28;20128;-76
2022/05/23 08:01:21;;;;;;;8.75;4.60;;;18.90;68.70;;;;;;5073910;28;20052;-74
2022/05/23 08:03:47;;;;;;;10.77;5.30;;;18.90;68.00;;;;;;5041443;28;20045;-77
2022/05/23 08:06:13;;;;;;;6.32;4.80;;;19.00;68.20;;;;;;5070698;28;20041;-76
2022/05/23 08:08:39;;;;;;;6.90;4.85;;;19.20;68.20;;;;;;5068300;28;20037;-77
2022/05/23 08:11:08;;;;;;;6.72;5.00;;;19.40;68.40;;;;;;5068050;28;20044;-78
2022/05/23 08:13:35;;;;;;;8.15;4.93;;;19.40;67.70;;;;;;5018613;28;20052;-78
2022/05/23 08:16:01;;;;;;;5.60;4.32;;;19.50;67.20;;;;;;5018788;28;20052;-84
2022/05/23 08:18:27;;;;;;;8.45;4.53;;;19.50;67.40;;;;;;5068032;28;20416;-76
2022/05/23 08:20:52;;;;;;;7.05;4.80;;;19.60;67.40;;;;;;5068052;28;20049;-75
2022/05/23 08:23:18;;;;;;;6.13;5.13;;;19.70;67.40;;;;;;5034510;28;20512;-74
2022/05/23 08:25:44;;;;;;;7.15;5.30;;;19.70;67.10;;;;;;5036307;28;20040;-78
2022/05/23 08:28:10;;;;;;;8.00;5.13;;;19.70;67.30;;;;;;5021865;28;20037;-79
2022/05/23 08:30:35;;;;;;;8.75;6.00;;;19.80;67.40;;;;;;5071632;28;20389;-79
2022/05/23 08:33:01;;;;;;;5.78;4.53;;;19.70;67.50;;;;;;5071596;28;20080;-78
2022/05/23 08:35:27;;;;;;;8.07;5.18;;;19.80;67.80;;;;;;5071387;28;20537;-76
2022/05/23 08:37:58;;;;;;;9.43;5.30;;;19.90;67.60;;;;;;5022207;28;20127;-79
2022/05/23 08:40:34;;;;;;;8.38;5.60;;;20.00;67.60;;;;;;5071434;28;20116;-80
2022/05/23 08:43:05;;;;;;;8.95;6.07;;;20.10;67.10;;;;;;5071637;28;20432;-77
2022/05/23 08:45:40;;;;;;;7.00;5.00;;;20.20;66.90;;;;;;5021494;28;20111;-79
2022/05/23 08:48:23;;;;;;;6.95;5.10;;;20.30;66.00;;;;;;5021526;28;20032;-78
2022/05/23 08:51:04;;;;;;;7.43;5.70;;;20.30;66.10;;;;;;5071178;28;20578;-77
2022/05/23 08:53:37;;;;;;;6.80;5.03;;;20.40;65.60;;;;;;5021194;28;20090;-79
2022/05/23 08:56:18;;;;;;;7.40;5.40;;;20.50;65.60;;;;;;5071009;28;20057;-79
2022/05/23 08:58:52;;;;;;;6.00;4.88;;;20.50;65.20;;;;;;5071391;28;20386;-81
2022/05/23 09:01:23;;;;;;;;;;;20.70;64.60;;;;;;5021890;28;20424;-78
2022/05/23 09:04:02;;;;;;;9.23;5.13;;;20.80;65.20;;;;;;5043295;28;19921;-77
2022/05/23 09:06:31;;;;;;;8.93;5.88;;;21.00;65.00;;;;;;5038216;28;20055;-77
2022/05/23 09:09:07;;;;;;;8.50;5.22;;;21.20;64.40;;;;;;5040886;28;20045;-79
2022/05/23 09:11:48;;;;;;;9.15;5.40;;;21.30;61.30;;;;;;5045152;28;20538;-76
2022/05/23 09:14:16;;;;;;;7.13;5.07;;;21.40;63.50;;;;;;5049419;28;20096;-77
2022/05/23 09:16:51;;;;;;;7.75;4.97;;;21.60;63.70;;;;;;5026366;28;20053;-77
2022/05/23 09:19:18;;;;;;;9.40;5.32;;;21.80;61.90;;;;;;5046620;28;20445;-78
2022/05/23 09:25:00;;;;;;;8.35;5.38;;;22.00;62.30;;;;;;5040307;28;20111;-78
2022/05/23 09:27:35;;;;;;;8.63;6.70;;;22.10;62.20;;;;;;5021697;28;20088;-78
2022/05/23 09:30:01;;;;;;;6.93;5.40;;;22.10;62.10;;;;;;5041224;28;20593;-78
2022/05/23 09:32:34;;;;;;;10.32;6.32;;;22.10;61.30;;;;;;5038662;28;20043;-77
2022/05/23 09:35:22;;;;;;;9.88;5.22;;;21.90;60.90;;;;;;5043013;28;20045;-77
2022/05/23 09:38:05;;;;;;;7.60;5.70;;;21.90;62.10;;;;;;5036359;28;20071;-76
2022/05/23 09:40:33;;;;;;;9.40;5.57;;;22.00;62.00;;;;;;5041078;28;21010;-78
2022/05/23 09:49:15;;;;;;;6.05;5.43;;;22.50;62.00;;;;;;5041473;28;20394;-77
2022/05/23 09:51:50;;;;;;;7.68;5.95;;;22.50;61.20;;;;;;5018410;28;20041;-78
2022/05/23 09:54:25;;;;;;;7.47;5.28;;;22.70;60.70;;;;;;5044026;28;20505;-77
2022/05/23 09:56:52;;;;;;;7.43;5.40;;;22.80;60.50;;;;;;5016092;28;20061;-77
2022/05/23 09:59:23;;;;;;;10.20;5.30;;;22.80;60.90;;;;;;5039149;28;20059;-78
2022/05/23 10:01:48;;;;;;;8.00;5.00;;;22.90;60.50;;;;;;5039732;28;20045;-77
2022/05/23 10:04:29;;;;;;;9.18;6.18;;;22.80;59.70;;;;;;5020372;28;20060;-75
2022/05/23 10:06:55;;;;;;;9.60;6.00;;;22.90;58.30;;;;;;5036883;28;20493;-77
2022/05/23 10:09:31;;;;;;;8.45;5.85;;;23.00;59.30;;;;;;5038204;28;20044;-77
2022/05/23 10:12:06;;;;;;;13.95;6.50;;;23.20;58.80;;;;;;5037115;28;20041;-78
2022/05/23 10:14:51;;;;;;;9.35;5.53;;;23.40;58.80;;;;;;5037529;28;20123;-75
2022/05/23 10:17:33;;;;;;;6.88;5.47;;;23.70;58.80;;;;;;5017980;28;20133;-78
2022/05/23 10:20:30;;;;;;;8.68;6.15;;;24.00;60.00;;;;;;5042762;28;20290;-78
2022/05/23 10:23:23;;;;;;;9.15;6.28;;;24.20;56.70;;;;;;5025706;28;20052;-79
2022/05/23 10:26:16;;;;;;;7.73;5.87;;;24.40;57.40;;;;;;5037782;28;20050;-78
2022/05/23 10:28:52;;;;;;;8.30;5.20;;;24.50;56.70;;;;;;5042189;28;20806;-76
2022/05/23 10:31:40;;;;;;;7.80;4.97;;;24.50;55.50;;;;;;5023573;28;20079;-79
2022/05/23 10:34:49;;;;;;;8.20;6.13;;;24.40;54.70;;;;;;5041420;28;20559;-77
2022/05/23 10:37:21;;;;;;;8.63;5.25;;;24.40;54.90;;;;;;5014124;28;20049;-78
2022/05/23 10:42:53;;;;;;;5.72;5.00;;;24.80;54.50;;;;;;5055815;28;20550;-75
2022/05/23 10:45:19;;;;;;;5.68;4.80;;;24.90;52.70;;;;;;5055634;28;20041;-76
2022/05/23 10:47:56;;;;;;;9.63;5.60;;;25.00;55.00;;;;;;5039424;28;20059;-76
2022/05/23 10:50:31;;;;;;;7.68;4.72;;;25.10;54.20;;;;;;5055578;28;20056;-78
2022/05/23 10:53:16;;;;;;;8.57;5.28;;;25.30;54.50;;;;;;5055893;28;20036;-77
2022/05/23 10:56:00;;;;;;;6.50;3.78;;;25.40;54.80;;;;;;5055444;28;20065;-80
2022/05/23 10:58:50;;;;;;;5.53;4.28;;;25.30;53.80;;;;;;5055760;28;20377;-78
2022/05/23 11:01:54;;;;;;;4.97;3.10;;;25.50;51.90;;;;;;5039003;28;20063;-79
2022/05/23 11:04:50;;;;;;;9.63;4.35;;;25.80;50.80;;;;;;4984971;28;20133;-76
2022/05/23 11:07:30;;;;;;;8.77;4.10;;;25.80;52.60;;;;;;5044424;28;20047;-78
2022/05/23 11:10:09;;;;;;;5.65;4.20;;;25.90;52.70;;;;;;5021227;28;20044;-76
2022/05/23 11:12:46;;;;;;;6.13;3.70;;;25.90;52.00;;;;;;5042571;28;20041;-76
2022/05/23 11:15:44;;;;;;;7.25;4.15;;;25.60;52.00;;;;;;5040890;28;20053;-75
2022/05/23 11:18:37;;;;;;;6.38;3.63;;;25.50;51.10;;;;;;5033931;28;20056;-79
2022/05/23 11:21:09;;;;;;;7.25;4.53;;;25.60;51.70;;;;;;5020396;28;20037;-75
2022/05/23 11:23:51;;;;;;;6.53;3.72;;;25.60;51.10;;;;;;5042858;28;20425;-77
2022/05/23 11:26:28;;;;;;;8.88;4.60;;;25.90;49.60;;;;;;5039546;28;20480;-79
2022/05/23 11:34:52;;;;;;;8.02;3.42;;;25.60;48.20;;;;;;5040163;28;20767;-78
2022/05/23 11:40:25;;;;;;;6.72;3.00;;;25.70;47.90;;;;;;5041006;28;20056;-79
2022/05/23 11:42:59;;;;;;;4.22;3.10;;;25.80;48.40;;;;;;5027674;28;20632;-76
2022/05/23 11:46:00;;;;;;;4.85;3.22;;;25.80;49.40;;;;;;5025958;28;20568;-78
2022/05/23 11:48:41;;;;;;;5.50;3.10;;;25.60;48.40;;;;;;5026673;28;20119;-77
2022/05/23 11:51:31;;;;;;;5.78;3.60;;;25.40;49.00;;;;;;5039422;28;20060;-78
2022/05/23 11:54:00;;;;;;;4.25;3.40;;;25.40;48.60;;;;;;5039208;28;20037;-77
2022/05/23 11:56:33;;;;;;;5.35;2.85;;;25.80;48.90;;;;;;5019355;28;20103;-76
2022/05/23 11:58:59;;;;;;;5.28;3.25;;;25.90;48.70;;;;;;5038014;28;20140;-75
2022/05/23 12:01:29;;;;;;;3.88;3.10;;;25.90;48.90;;;;;;5042999;28;20120;-81
2022/05/23 12:03:55;;;;;;;4.40;2.90;;;25.90;48.80;;;;;;5043689;28;20128;-78
2022/05/23 12:06:24;;;;;;;4.20;2.53;;;25.80;48.50;;;;;;5027287;28;20123;-78
2022/05/23 12:09:13;;;;;;;3.53;2.22;;;25.90;48.40;;;;;;5043484;28;20068;-77
2022/05/23 12:11:42;;;;;;;3.92;2.50;;;26.00;47.30;;;;;;5043837;28;20134;-76
2022/05/23 12:14:42;;;;;;;4.32;2.20;;;26.10;45.90;;;;;;5041304;28;20400;-78
2022/05/23 12:17:30;;;;;;;4.85;2.10;;;26.10;45.80;;;;;;5039863;28;21663;-77
2022/05/23 12:19:59;;;;;;;5.60;2.47;;;26.10;44.60;;;;;;5043092;28;20047;-79
2022/05/23 12:22:32;;;;;;;4.97;2.83;;;26.00;44.50;;;;;;5029441;28;20817;-75
2022/05/23 12:25:07;;;;;;;4.30;2.58;;;26.00;45.80;;;;;;5044244;28;20044;-79
2022/05/23 12:27:41;;;;;;;4.45;2.75;;;26.10;45.70;;;;;;5037321;28;20086;-77
2022/05/23 12:30:24;;;;;;;4.40;2.80;;;26.00;45.20;;;;;;5039003;28;20052;-79
2022/05/23 12:32:56;;;;;;;5.05;2.60;;;25.90;45.40;;;;;;5040743;28;20060;-77
2022/05/23 12:35:45;;;;;;;4.85;3.08;;;25.60;46.30;;;;;;5043183;28;20786;-74
2022/05/23 12:38:44;;;;;;;5.35;3.03;;;25.50;47.30;;;;;;5040007;28;20045;-76
2022/05/23 12:41:28;;;;;;;3.95;3.10;;;25.20;47.60;;;;;;5042083;28;20099;-77
2022/05/23 12:43:54;;;;;;;;;;;25.10;47.90;;;;;;5043313;28;20478;-76
2022/05/23 12:46:42;;;;;;;7.13;3.88;;;24.90;49.00;;;;;;5040543;28;20559;-77
2022/05/23 12:49:45;;;;;;;8.50;3.50;;;24.90;50.20;;;;;;5043326;28;20032;-78
2022/05/23 12:52:35;;;;;;;10.07;3.77;;;24.80;50.80;;;;;;5041348;28;20068;-80
2022/05/23 12:55:28;;;;;;;5.80;3.60;;;24.60;52.00;;;;;;5044672;28;20307;-78
2022/05/23 12:58:03;;;;;;;6.72;3.50;;;24.40;54.20;;;;;;5040191;28;20052;-81
2022/05/23 13:00:39;;;;;;;9.57;3.67;;;24.30;55.60;;;;;;5042853;28;20059;-80
2022/05/23 13:03:22;;;;;;;5.88;3.47;;;24.00;59.00;;;;;;5037534;28;20091;-77
2022/05/23 13:05:58;;;;;;;10.80;4.47;;;23.80;59.70;;;;;;5027134;28;20064;-76
2022/05/23 13:08:52;;;;;;;4.70;3.95;;;23.80;60.60;;;;;;5024711;28;20044;-78
2022/05/23 13:11:26;;;;;;;8.65;4.82;;;23.70;61.10;;;;;;5037240;28;20053;-79
2022/05/23 13:13:58;;;;;;;4.68;3.72;;;23.60;62.10;;;;;;5042047;28;20492;-78
2022/05/23 13:16:36;;;;;;;7.97;3.83;;;23.50;61.80;;;;;;5024755;28;20076;-76
2022/05/23 13:22:12;;;;;;;7.10;3.67;;;23.30;62.10;;;;;;5041727;28;20055;-78
2022/05/23 13:24:53;;;;;;;7.35;4.63;;;23.00;63.00;;;;;;5042569;28;20055;-78
2022/05/23 13:27:22;;;;;;;6.32;4.35;;;22.70;65.20;;;;;;5037847;28;20040;-78
2022/05/23 13:29:52;;;;;;;4.60;3.72;;;22.40;65.30;;;;;;5040488;28;20601;-79
2022/05/23 13:32:18;;;;;;;5.85;3.75;;;22.20;64.90;;;;;;5038992;28;20067;-80
2022/05/23 13:34:46;;;;;;;5.47;3.53;;;22.10;64.50;;;;;;5022159;28;20063;-76
2022/05/23 13:37:27;;;;;;;5.93;4.05;;;22.00;64.30;;;;;;5040181;28;20041;-78
2022/05/23 13:39:53;;;;;;;6.20;4.72;;;21.90;65.40;;;;;;5042157;28;20059;-76
2022/05/23 13:42:28;;;;;;;6.90;4.18;;;21.90;66.00;;;;;;5037180;28;20080;-77
2022/05/23 13:45:08;;;;;;;6.80;4.05;;;21.90;65.50;;;;;;5037160;28;20060;-79
2022/05/23 13:47:34;;;;;;;7.20;4.30;;;21.90;65.20;;;;;;5039110;28;20372;-78
2022/05/23 13:50:12;;;;;;;7.18;3.95;;;21.90;65.00;;;;;;5039166;28;20032;-76
2022/05/23 13:52:49;;;;;;;4.93;4.13;;;22.00;64.70;;;;;;5025816;28;20075;-80
2022/05/23 13:55:25;;;;;;;6.32;3.97;;;22.10;64.40;;;;;;5041227;28;20079;-80
2022/05/23 13:58:07;;;;;;;5.82;3.35;;;22.20;63.30;;;;;;5038940;28;20124;-76
2022/05/23 14:00:39;;;;;;;6.03;3.38;;;22.30;62.50;;;;;;5039885;28;20457;-76
2022/05/23 14:03:09;;;;;;;6.88;3.20;;;22.40;62.30;;;;;;5043082;28;20053;-79
2022/05/23 14:05:45;;;;;;;5.65;3.28;;;22.40;61.60;;;;;;5020257;28;20056;-82
2022/05/23 14:08:15;;;;;;;4.97;3.20;;;22.40;60.60;;;;;;5040136;28;20133;-77
2022/05/23 14:10:44;;;;;;;5.95;3.60;;;22.40;60.50;;;;;;5044340;28;20044;-78
2022/05/23 14:13:12;;;;;;;6.75;3.45;;;22.40;60.20;;;;;;5042943;28;20040;-79
2022/05/23 14:15:44;;;;;;;5.05;3.47;;;22.40;60.80;;;;;;5024077;28;20044;-79